sensor_id;sensor_type;location;lat;lon;timestamp;pressure;altitude;pressure_sealevel;temperature;humidity
46836;BME280;32573;51.290;6.926;2022-10-16T00:01:29;99725.53;;;14.16;100.00
46836;BME280;32573;51.290;6.926;2022-10-16T00:03:59;99735.16;;;14.17;100.00
46836;BME280;32573;51.290;6.926;2022-10-16T00:06:30;99717.63;;;14.17;100.00
46836;BME280;32573;51.290;6.926;2022-10-16T00:08:58;99722.00;;;14.17;100.00
46836;BME280;32573;51.290;6.926;2022-10-16T00:11:30;99722.00;;;14.17;100.00
46836;BME280;32573;51.290;6.926;2022-10-16T00:14:01;99729.91;;;14.17;100.00
46836;BME280;32573;51.290;6.926;2022-10-16T00:16:30;99725.53;;;14.16;100.00
46836;BME280;32573;51.290;6.926;2022-10-16T00:18:59;99725.53;;;14.16;100.00
46836;BME280;32573;51.290;6.926;2022-10-16T00:21:29;99729.00;;;14.15;100.00
46836;BME280;32573;51.290;6.926;2022-10-16T00:24:00;99743.94;;;14.14;100.00
46836;BME280;32573;51.290;6.926;2022-10-16T00:26:32;99740.41;;;14.12;100.00
46836;BME280;32573;51.290;6.926;2022-10-16T00:29:00;99750.06;;;14.12;100.00
46836;BME280;32573;51.290;6.926;2022-10-16T00:31:29;99740.38;;;14.09;100.00
46836;BME280;32573;51.290;6.926;2022-10-16T00:33:58;99746.53;;;14.10;100.00
46836;BME280;32573;51.290;6.926;2022-10-16T00:36:27;99733.34;;;14.07;100.00
46836;BME280;32573;51.290;6.926;2022-10-16T00:38:56;99735.09;;;14.06;100.00
46836;BME280;32573;51.290;6.926;2022-10-16T00:41:33;99747.38;;;14.04;100.00
46836;BME280;32573;51.290;6.926;2022-10-16T00:44:04;99736.84;;;14.04;100.00
46836;BME280;32573;51.290;6.926;2022-10-16T00:46:51;99745.63;;;14.03;100.00
46836;BME280;32573;51.290;6.926;2022-10-16T00:49:20;99742.09;;;14.02;100.00
46836;BME280;32573;51.290;6.926;2022-10-16T00:51:50;99739.44;;;13.99;100.00
46836;BME280;32573;51.290;6.926;2022-10-16T00:54:21;99735.06;;;13.98;100.00
46836;BME280;32573;51.290;6.926;2022-10-16T00:56:53;99735.91;;;13.97;100.00
46836;BME280;32573;51.290;6.926;2022-10-16T00:59:24;99729.78;;;13.97;100.00
46836;BME280;32573;51.290;6.926;2022-10-16T01:01:53;99734.16;;;13.96;100.00
46836;BME280;32573;51.290;6.926;2022-10-16T01:04:25;99733.25;;;13.94;100.00
46836;BME280;32573;51.290;6.926;2022-10-16T01:07:02;99728.88;;;13.93;100.00
46836;BME280;32573;51.290;6.926;2022-10-16T01:09:39;99730.59;;;13.90;100.00
46836;BME280;32573;51.290;6.926;2022-10-16T01:12:15;99734.97;;;13.88;100.00
46836;BME280;32573;51.290;6.926;2022-10-16T01:14:48;99730.56;;;13.85;100.00
46836;BME280;32573;51.290;6.926;2022-10-16T01:17:25;99734.94;;;13.83;100.00
46836;BME280;32573;51.290;6.926;2022-10-16T01:20:05;99738.44;;;13.80;100.00
46836;BME280;32573;51.290;6.926;2022-10-16T01:22:47;99746.31;;;13.79;100.00
46836;BME280;32573;51.290;6.926;2022-10-16T01:25:23;99761.19;;;13.77;100.00
46836;BME280;32573;51.290;6.926;2022-10-16T01:27:55;99744.50;;;13.75;100.00
46836;BME280;32573;51.290;6.926;2022-10-16T01:30:26;99753.28;;;13.74;100.00
46836;BME280;32573;51.290;6.926;2022-10-16T01:33:01;99742.75;;;13.74;100.00
46836;BME280;32573;51.290;6.926;2022-10-16T01:35:34;99736.59;;;13.72;100.00
46836;BME280;32573;51.290;6.926;2022-10-16T01:38:07;99747.09;;;13.70;100.00
46836;BME280;32573;51.290;6.926;2022-10-16T01:40:39;99744.47;;;13.69;100.00
46836;BME280;32573;51.290;6.926;2022-10-16T01:43:15;99748.88;;;13.68;100.00
46836;BME280;32573;51.290;6.926;2022-10-16T01:45:46;99740.06;;;13.68;100.00
46836;BME280;32573;51.290;6.926;2022-10-16T01:48:18;99736.59;;;13.69;100.00
46836;BME280;32573;51.290;6.926;2022-10-16T01:50:54;99739.22;;;13.69;100.00
46836;BME280;32573;51.290;6.926;2022-10-16T01:53:24;99755.88;;;13.69;100.00
46836;BME280;32573;51.290;6.926;2022-10-16T01:55:55;99752.34;;;13.70;100.00
46836;BME280;32573;51.290;6.926;2022-10-16T01:58:28;99738.34;;;13.70;100.00
46836;BME280;32573;51.290;6.926;2022-10-16T02:01:02;99748.84;;;13.70;100.00
46836;BME280;32573;51.290;6.926;2022-10-16T02:03:34;99749.75;;;13.72;100.00
46836;BME280;32573;51.290;6.926;2022-10-16T02:06:03;99741.00;;;13.71;100.00
46836;BME280;32573;51.290;6.926;2022-10-16T02:08:32;99748.88;;;13.71;100.00
46836;BME280;32573;51.290;6.926;2022-10-16T02:11:00;99744.50;;;13.72;100.00
46836;BME280;32573;51.290;6.926;2022-10-16T02:13:34;99736.59;;;13.72;100.00
46836;BME280;32573;51.290;6.926;2022-10-16T02:16:06;99745.38;;;13.72;100.00
46836;BME280;32573;51.290;6.926;2022-10-16T02:18:34;99748.88;;;13.71;100.00
46836;BME280;32573;51.290;6.926;2022-10-16T02:21:10;99756.78;;;13.73;100.00
46836;BME280;32573;51.290;6.926;2022-10-16T02:23:47;99748.03;;;13.74;100.00
46836;BME280;32573;51.290;6.926;2022-10-16T02:26:23;99745.41;;;13.75;100.00
46836;BME280;32573;51.290;6.926;2022-10-16T02:28:58;99746.28;;;13.76;100.00
46836;BME280;32573;51.290;6.926;2022-10-16T02:31:31;99751.56;;;13.79;100.00
46836;BME280;32573;51.290;6.926;2022-10-16T02:34:02;99750.69;;;13.80;100.00
46836;BME280;32573;51.290;6.926;2022-10-16T02:36:32;99762.09;;;13.82;100.00
46836;BME280;32573;51.290;6.926;2022-10-16T02:39:04;99767.41;;;13.84;100.00
46836;BME280;32573;51.290;6.926;2022-10-16T02:41:33;99764.75;;;13.85;100.00
46836;BME280;32573;51.290;6.926;2022-10-16T02:44:03;99760.41;;;13.87;100.00
46836;BME280;32573;51.290;6.926;2022-10-16T02:46:32;99762.19;;;13.88;100.00
46836;BME280;32573;51.290;6.926;2022-10-16T02:49:00;99765.66;;;13.90;100.00
46836;BME280;32573;51.290;6.926;2022-10-16T02:51:28;99762.19;;;13.91;100.00
46836;BME280;32573;51.290;6.926;2022-10-16T02:53:57;99763.06;;;13.92;100.00
46836;BME280;32573;51.290;6.926;2022-10-16T02:56:25;99755.19;;;13.92;100.00
46836;BME280;32573;51.290;6.926;2022-10-16T02:58:53;99758.69;;;13.92;100.00
46836;BME280;32573;51.290;6.926;2022-10-16T03:01:23;99757.81;;;13.92;100.00
46836;BME280;32573;51.290;6.926;2022-10-16T03:03:51;99771.00;;;13.93;100.00
46836;BME280;32573;51.290;6.926;2022-10-16T03:06:20;99759.59;;;13.93;100.00
46836;BME280;32573;51.290;6.926;2022-10-16T03:08:48;99764.84;;;13.93;100.00
46836;BME280;32573;51.290;6.926;2022-10-16T03:11:17;99766.56;;;13.92;100.00
46836;BME280;32573;51.290;6.926;2022-10-16T03:13:45;99767.47;;;13.91;100.00
46836;BME280;32573;51.290;6.926;2022-10-16T03:16:14;99770.94;;;13.90;100.00
46836;BME280;32573;51.290;6.926;2022-10-16T03:18:43;99757.78;;;13.89;100.00
46836;BME280;32573;51.290;6.926;2022-10-16T03:21:15;99765.66;;;13.87;100.00
46836;BME280;32573;51.290;6.926;2022-10-16T03:23:44;99756.88;;;13.85;100.00
46836;BME280;32573;51.290;6.926;2022-10-16T03:26:12;99751.59;;;13.85;100.00
46836;BME280;32573;51.290;6.926;2022-10-16T03:28:41;99756.88;;;13.84;100.00
46836;BME280;32573;51.290;6.926;2022-10-16T03:31:09;99760.34;;;13.82;100.00
46836;BME280;32573;51.290;6.926;2022-10-16T03:33:38;99761.25;;;13.81;100.00
46836;BME280;32573;51.290;6.926;2022-10-16T03:36:07;99753.31;;;13.80;100.00
46836;BME280;32573;51.290;6.926;2022-10-16T03:38:36;99764.72;;;13.79;100.00
46836;BME280;32573;51.290;6.926;2022-10-16T03:41:04;99770.88;;;13.78;100.00
46836;BME280;32573;51.290;6.926;2022-10-16T03:43:34;99769.94;;;13.74;100.00
46836;BME280;32573;51.290;6.926;2022-10-16T03:46:03;99766.44;;;13.74;100.00
46836;BME280;32573;51.290;6.926;2022-10-16T03:48:31;99765.53;;;13.72;100.00
46836;BME280;32573;51.290;6.926;2022-10-16T03:50:59;99778.66;;;13.70;100.00
46836;BME280;32573;51.290;6.926;2022-10-16T03:53:29;99776.03;;;13.69;100.00
46836;BME280;32573;51.290;6.926;2022-10-16T03:55:57;99773.38;;;13.67;100.00
46836;BME280;32573;51.290;6.926;2022-10-16T03:58:26;99778.66;;;13.66;100.00
46836;BME280;32573;51.290;6.926;2022-10-16T04:00:54;99775.97;;;13.63;100.00
46836;BME280;32573;51.290;6.926;2022-10-16T04:03:22;99771.56;;;13.60;100.00
46836;BME280;32573;51.290;6.926;2022-10-16T04:05:51;99776.81;;;13.58;100.00
46836;BME280;32573;51.290;6.926;2022-10-16T04:08:19;99783.81;;;13.56;100.00
46836;BME280;32573;51.290;6.926;2022-10-16T04:10:49;99786.41;;;13.53;100.00
46836;BME280;32573;51.290;6.926;2022-10-16T04:13:17;99793.41;;;13.51;100.00
46836;BME280;32573;51.290;6.926;2022-10-16T04:15:51;99795.13;;;13.49;100.00
46836;BME280;32573;51.290;6.926;2022-10-16T04:18:19;99792.44;;;13.45;100.00
46836;BME280;32573;51.290;6.926;2022-10-16T04:20:47;99792.47;;;13.43;100.00
46836;BME280;32573;51.290;6.926;2022-10-16T04:23:16;99796.81;;;13.41;100.00
46836;BME280;32573;51.290;6.926;2022-10-16T04:25:44;99803.78;;;13.39;100.00
46836;BME280;32573;51.290;6.926;2022-10-16T04:28:14;99809.91;;;13.36;100.00
46836;BME280;32573;51.290;6.926;2022-10-16T04:30:42;99817.75;;;13.35;100.00
46836;BME280;32573;51.290;6.926;2022-10-16T04:33:10;99814.25;;;13.33;100.00
46836;BME280;32573;51.290;6.926;2022-10-16T04:35:39;99824.72;;;13.30;100.00
46836;BME280;32573;51.290;6.926;2022-10-16T04:38:08;99836.09;;;13.29;100.00
46836;BME280;32573;51.290;6.926;2022-10-16T04:40:36;99826.44;;;13.28;100.00
46836;BME280;32573;51.290;6.926;2022-10-16T04:43:05;99820.28;;;13.26;100.00
46836;BME280;32573;51.290;6.926;2022-10-16T04:45:35;99817.66;;;13.26;100.00
46836;BME280;32573;51.290;6.926;2022-10-16T04:48:04;99811.50;;;13.24;100.00
46836;BME280;32573;51.290;6.926;2022-10-16T04:50:32;99802.69;;;13.22;100.00
46836;BME280;32573;51.290;6.926;2022-10-16T04:53:05;99809.72;;;13.21;100.00
46836;BME280;32573;51.290;6.926;2022-10-16T04:55:34;99829.84;;;13.21;100.00
46836;BME280;32573;51.290;6.926;2022-10-16T04:58:03;99835.13;;;13.21;100.00
46836;BME280;32573;51.290;6.926;2022-10-16T05:00:32;99842.09;;;13.20;100.00
46836;BME280;32573;51.290;6.926;2022-10-16T05:03:02;99835.06;;;13.17;100.00
46836;BME280;32573;51.290;6.926;2022-10-16T05:05:33;99840.31;;;13.17;100.00
46836;BME280;32573;51.290;6.926;2022-10-16T05:08:02;99851.69;;;13.16;100.00
46836;BME280;32573;51.290;6.926;2022-10-16T05:10:31;99850.81;;;13.17;100.00
46836;BME280;32573;51.290;6.926;2022-10-16T05:12:59;99847.31;;;13.15;100.00
46836;BME280;32573;51.290;6.926;2022-10-16T05:15:28;99845.53;;;13.14;100.00
46836;BME280;32573;51.290;6.926;2022-10-16T05:17:56;99857.84;;;13.15;100.00
46836;BME280;32573;51.290;6.926;2022-10-16T05:20:26;99858.66;;;13.14;100.00
46836;BME280;32573;51.290;6.926;2022-10-16T05:22:54;99867.44;;;13.13;100.00
46836;BME280;32573;51.290;6.926;2022-10-16T05:25:23;99875.31;;;13.13;100.00
46836;BME280;32573;51.290;6.926;2022-10-16T05:27:51;99867.41;;;13.12;100.00
46836;BME280;32573;51.290;6.926;2022-10-16T05:30:20;99876.16;;;13.11;100.00
46836;BME280;32573;51.290;6.926;2022-10-16T05:32:49;99872.63;;;13.09;100.00
46836;BME280;32573;51.290;6.926;2022-10-16T05:35:18;99876.13;;;13.09;100.00
46836;BME280;32573;51.290;6.926;2022-10-16T05:37:48;99872.59;;;13.07;100.00
46836;BME280;32573;51.290;6.926;2022-10-16T05:40:16;99873.47;;;13.08;100.00
46836;BME280;32573;51.290;6.926;2022-10-16T05:42:45;99880.47;;;13.07;100.00
46836;BME280;32573;51.290;6.926;2022-10-16T05:45:13;99880.47;;;13.06;100.00
46836;BME280;32573;51.290;6.926;2022-10-16T05:47:42;99874.31;;;13.05;100.00
46836;BME280;32573;51.290;6.926;2022-10-16T05:50:10;99880.44;;;13.04;100.00
46836;BME280;32573;51.290;6.926;2022-10-16T05:52:38;99894.50;;;13.06;100.00
46836;BME280;32573;51.290;6.926;2022-10-16T05:55:08;99901.47;;;13.04;100.00
46836;BME280;32573;51.290;6.926;2022-10-16T05:57:37;99913.72;;;13.05;100.00
46836;BME280;32573;51.290;6.926;2022-10-16T06:00:09;99907.59;;;13.03;100.00
46836;BME280;32573;51.290;6.926;2022-10-16T06:02:40;99904.97;;;13.03;100.00
46836;BME280;32573;51.290;6.926;2022-10-16T06:05:08;99911.97;;;13.04;100.00
46836;BME280;32573;51.290;6.926;2022-10-16T06:07:37;99920.72;;;13.03;100.00
46836;BME280;32573;51.290;6.926;2022-10-16T06:10:08;99919.81;;;13.03;100.00
46836;BME280;32573;51.290;6.926;2022-10-16T06:12:36;99924.19;;;13.02;100.00
46836;BME280;32573;51.290;6.926;2022-10-16T06:15:06;99911.06;;;13.02;100.00
46836;BME280;32573;51.290;6.926;2022-10-16T06:17:34;99925.97;;;13.02;100.00
46836;BME280;32573;51.290;6.926;2022-10-16T06:20:03;99928.59;;;13.02;100.00
46836;BME280;32573;51.290;6.926;2022-10-16T06:22:31;99943.47;;;13.01;100.00
46836;BME280;32573;51.290;6.926;2022-10-16T06:24:59;99935.59;;;13.01;100.00
46836;BME280;32573;51.290;6.926;2022-10-16T06:27:29;99933.84;;;13.02;100.00
46836;BME280;32573;51.290;6.926;2022-10-16T06:29:57;99936.50;;;13.03;100.00
46836;BME280;32573;51.290;6.926;2022-10-16T06:32:27;99953.13;;;13.04;100.00
46836;BME280;32573;51.290;6.926;2022-10-16T06:34:55;99951.38;;;13.04;100.00
46836;BME280;32573;51.290;6.926;2022-10-16T06:37:24;99940.00;;;13.05;100.00
46836;BME280;32573;51.290;6.926;2022-10-16T06:39:53;99939.16;;;13.06;100.00
46836;BME280;32573;51.290;6.926;2022-10-16T06:42:21;99939.16;;;13.08;100.00
46836;BME280;32573;51.290;6.926;2022-10-16T06:44:52;99940.94;;;13.09;100.00
46836;BME280;32573;51.290;6.926;2022-10-16T06:47:20;99955.00;;;13.11;100.00
46836;BME280;32573;51.290;6.926;2022-10-16T06:49:48;99969.94;;;13.13;100.00
46836;BME280;32573;51.290;6.926;2022-10-16T06:52:20;99971.69;;;13.14;100.00
46836;BME280;32573;51.290;6.926;2022-10-16T06:54:49;99974.34;;;13.16;100.00
46836;BME280;32573;51.290;6.926;2022-10-16T06:57:18;99982.25;;;13.19;100.00
46836;BME280;32573;51.290;6.926;2022-10-16T06:59:46;99984.06;;;13.22;100.00
46836;BME280;32573;51.290;6.926;2022-10-16T07:02:22;99988.47;;;13.24;100.00
46836;BME280;32573;51.290;6.926;2022-10-16T07:04:51;99998.16;;;13.27;100.00
46836;BME280;32573;51.290;6.926;2022-10-16T07:07:19;99996.47;;;13.29;100.00
46836;BME280;32573;51.290;6.926;2022-10-16T07:09:47;100005.25;;;13.31;100.00
46836;BME280;32573;51.290;6.926;2022-10-16T07:12:16;100000.91;;;13.33;100.00
46836;BME280;32573;51.290;6.926;2022-10-16T07:14:45;100002.66;;;13.34;100.00
46836;BME280;32573;51.290;6.926;2022-10-16T07:17:13;100008.81;;;13.36;100.00
46836;BME280;32573;51.290;6.926;2022-10-16T07:19:44;100015.84;;;13.37;100.00
46836;BME280;32573;51.290;6.926;2022-10-16T07:22:13;100015.00;;;13.38;100.00
46836;BME280;32573;51.290;6.926;2022-10-16T07:24:41;100020.25;;;13.38;100.00
46836;BME280;32573;51.290;6.926;2022-10-16T07:27:14;100026.38;;;13.40;100.00
46836;BME280;32573;51.290;6.926;2022-10-16T07:29:43;100028.19;;;13.41;100.00
46836;BME280;32573;51.290;6.926;2022-10-16T07:32:11;100031.69;;;13.42;100.00
46836;BME280;32573;51.290;6.926;2022-10-16T07:34:40;100034.34;;;13.43;100.00
46836;BME280;32573;51.290;6.926;2022-10-16T07:37:10;100039.59;;;13.45;100.00
46836;BME280;32573;51.290;6.926;2022-10-16T07:39:38;100048.38;;;13.45;100.00
46836;BME280;32573;51.290;6.926;2022-10-16T07:42:07;100042.28;;;13.46;100.00
46836;BME280;32573;51.290;6.926;2022-10-16T07:44:35;100051.06;;;13.48;100.00
46836;BME280;32573;51.290;6.926;2022-10-16T07:47:04;100054.56;;;13.50;100.00
46836;BME280;32573;51.290;6.926;2022-10-16T07:49:32;100058.13;;;13.52;100.00
46836;BME280;32573;51.290;6.926;2022-10-16T07:52:00;100064.31;;;13.56;100.00
46836;BME280;32573;51.290;6.926;2022-10-16T07:54:30;100070.50;;;13.59;100.00
46836;BME280;32573;51.290;6.926;2022-10-16T07:56:58;100066.19;;;13.63;100.00
46836;BME280;32573;51.290;6.926;2022-10-16T07:59:27;100067.09;;;13.67;100.00
46836;BME280;32573;51.290;6.926;2022-10-16T08:01:55;100070.66;;;13.72;100.00
46836;BME280;32573;51.290;6.926;2022-10-16T08:04:23;100083.00;;;13.76;100.00
46836;BME280;32573;51.290;6.926;2022-10-16T08:06:52;100088.34;;;13.82;100.00
46836;BME280;32573;51.290;6.926;2022-10-16T08:09:21;100086.66;;;13.87;100.00
46836;BME280;32573;51.290;6.926;2022-10-16T08:11:50;100090.22;;;13.92;100.00
46836;BME280;32573;51.290;6.926;2022-10-16T08:14:19;100092.94;;;13.97;100.00
46836;BME280;32573;51.290;6.926;2022-10-16T08:16:47;100100.88;;;14.01;100.00
46836;BME280;32573;51.290;6.926;2022-10-16T08:19:16;100101.81;;;14.07;100.00
46836;BME280;32573;51.290;6.926;2022-10-16T08:21:47;100101.03;;;14.14;100.00
46836;BME280;32573;51.290;6.926;2022-10-16T08:24:15;100110.75;;;14.19;100.00
46836;BME280;32573;51.290;6.926;2022-10-16T08:26:44;100113.44;;;14.24;100.00
46836;BME280;32573;51.290;6.926;2022-10-16T08:29:14;100104.75;;;14.31;100.00
46836;BME280;32573;51.290;6.926;2022-10-16T08:31:42;100111.00;;;14.38;100.00
46836;BME280;32573;51.290;6.926;2022-10-16T08:34:11;100116.31;;;14.44;100.00
46836;BME280;32573;51.290;6.926;2022-10-16T08:36:39;100123.41;;;14.50;100.00
46836;BME280;32573;51.290;6.926;2022-10-16T08:39:08;100125.28;;;14.55;100.00
46836;BME280;32573;51.290;6.926;2022-10-16T08:45:12;100131.56;;;14.71;100.00
46836;BME280;32573;51.290;6.926;2022-10-16T08:47:48;100132.53;;;14.78;100.00
46836;BME280;32573;51.290;6.926;2022-10-16T08:50:21;100128.19;;;14.84;100.00
46836;BME280;32573;51.290;6.926;2022-10-16T08:52:51;100132.63;;;14.90;100.00
46836;BME280;32573;51.290;6.926;2022-10-16T08:55:30;100136.22;;;14.95;100.00
46836;BME280;32573;51.290;6.926;2022-10-16T08:58:00;100135.38;;;15.01;100.00
46836;BME280;32573;51.290;6.926;2022-10-16T09:00:30;100144.25;;;15.09;100.00
46836;BME280;32573;51.290;6.926;2022-10-16T09:03:04;100153.06;;;15.14;100.00
46836;BME280;32573;51.290;6.926;2022-10-16T09:05:54;100160.19;;;15.21;100.00
46836;BME280;32573;51.290;6.926;2022-10-16T09:08:30;100163.75;;;15.29;100.00
46836;BME280;32573;51.290;6.926;2022-10-16T09:11:09;100163.81;;;15.36;100.00
46836;BME280;32573;51.290;6.926;2022-10-16T09:13:48;100163.88;;;15.42;100.00
46836;BME280;32573;51.290;6.926;2022-10-16T09:16:23;100153.38;;;15.48;100.00
46836;BME280;32573;51.290;6.926;2022-10-16T09:18:58;100165.75;;;15.55;100.00
46836;BME280;32573;51.290;6.926;2022-10-16T09:21:30;100167.53;;;15.62;100.00
46836;BME280;32573;51.290;6.926;2022-10-16T09:24:00;100165.81;;;15.67;100.00
46836;BME280;32573;51.290;6.926;2022-10-16T09:26:35;100172.06;;;15.72;100.00
46836;BME280;32573;51.290;6.926;2022-10-16T09:29:03;100173.00;;;15.81;100.00
46836;BME280;32573;51.290;6.926;2022-10-16T09:31:36;100187.97;;;15.86;100.00
46836;BME280;32573;51.290;6.926;2022-10-16T09:34:06;100176.56;;;15.92;100.00
46836;BME280;32573;51.290;6.926;2022-10-16T09:36:41;100176.63;;;15.95;100.00
46836;BME280;32573;51.290;6.926;2022-10-16T09:39:10;100176.63;;;15.98;100.00
46836;BME280;32573;51.290;6.926;2022-10-16T09:41:42;100185.44;;;16.03;100.00
46836;BME280;32573;51.290;6.926;2022-10-16T09:44:20;100180.19;;;16.06;100.00
46836;BME280;32573;51.290;6.926;2022-10-16T09:47:00;100180.19;;;16.12;100.00
46836;BME280;32573;51.290;6.926;2022-10-16T09:49:29;100177.63;;;16.18;100.00
46836;BME280;32573;51.290;6.926;2022-10-16T09:52:04;100167.06;;;16.20;100.00
46836;BME280;32573;51.290;6.926;2022-10-16T09:54:33;100173.22;;;16.24;100.00
46836;BME280;32573;51.290;6.926;2022-10-16T09:57:05;100172.38;;;16.29;100.00
46836;BME280;32573;51.290;6.926;2022-10-16T09:59:34;100179.47;;;16.36;100.00
46836;BME280;32573;51.290;6.926;2022-10-16T10:02:11;100180.38;;;16.43;100.00
46836;BME280;32573;51.290;6.926;2022-10-16T10:04:49;100176.84;;;16.47;100.00
46836;BME280;32573;51.290;6.926;2022-10-16T10:07:21;100184.81;;;16.50;100.00
46836;BME280;32573;51.290;6.926;2022-10-16T10:09:52;100187.47;;;16.56;100.00
46836;BME280;32573;51.290;6.926;2022-10-16T10:12:23;100172.50;;;16.61;100.00
46836;BME280;32573;51.290;6.926;2022-10-16T10:14:55;100174.28;;;16.66;100.00
46836;BME280;32573;51.290;6.926;2022-10-16T10:17:26;100172.53;;;16.72;100.00
46836;BME280;32573;51.290;6.926;2022-10-16T10:19:57;100174.34;;;16.79;100.00
46836;BME280;32573;51.290;6.926;2022-10-16T10:22:31;100182.28;;;16.84;100.00
46836;BME280;32573;51.290;6.926;2022-10-16T10:30:58;100198.16;;;16.87;100.00
46836;BME280;32573;51.290;6.926;2022-10-16T10:33:39;100192.03;;;16.85;100.00
46836;BME280;32573;51.290;6.926;2022-10-16T10:36:18;100185.84;;;16.88;100.00
46836;BME280;32573;51.290;6.926;2022-10-16T10:38:52;100187.63;;;16.90;100.00
46836;BME280;32573;51.290;6.926;2022-10-16T10:41:37;100184.97;;;16.92;100.00
46836;BME280;32573;51.290;6.926;2022-10-16T10:44:16;100189.38;;;16.94;100.00
46836;BME280;32573;51.290;6.926;2022-10-16T10:46:50;100185.88;;;16.98;100.00
46836;BME280;32573;51.290;6.926;2022-10-16T10:49:34;100193.81;;;17.03;100.00
46836;BME280;32573;51.290;6.926;2022-10-16T10:52:26;100196.44;;;17.04;100.00
46836;BME280;32573;51.290;6.926;2022-10-16T10:55:10;100195.59;;;17.06;100.00
46836;BME280;32573;51.290;6.926;2022-10-16T10:57:51;100192.03;;;17.10;100.00
46836;BME280;32573;51.290;6.926;2022-10-16T11:00:28;100198.25;;;17.16;100.00
46836;BME280;32573;51.290;6.926;2022-10-16T11:03:07;100194.72;;;17.22;100.00
46836;BME280;32573;51.290;6.926;2022-10-16T11:05:43;100199.16;;;17.31;100.00
46836;BME280;32573;51.290;6.926;2022-10-16T11:08:17;100208.84;;;17.39;100.00
46836;BME280;32573;51.290;6.926;2022-10-16T11:10:50;100206.19;;;17.47;100.00
46836;BME280;32573;51.290;6.926;2022-10-16T11:13:26;100201.81;;;17.55;100.00
46836;BME280;32573;51.290;6.926;2022-10-16T11:15:59;100207.09;;;17.63;100.00
46836;BME280;32573;51.290;6.926;2022-10-16T11:18:38;100207.97;;;17.74;100.00
46836;BME280;32573;51.290;6.926;2022-10-16T11:21:13;100210.66;;;17.83;100.00
46836;BME280;32573;51.290;6.926;2022-10-16T11:23:45;100211.53;;;17.93;100.00
46836;BME280;32573;51.290;6.926;2022-10-16T11:26:20;100202.66;;;17.99;100.00
46836;BME280;32573;51.290;6.926;2022-10-16T11:28:53;100206.19;;;18.07;100.00
46836;BME280;32573;51.290;6.926;2022-10-16T11:31:28;100209.72;;;18.06;100.00
46836;BME280;32573;51.290;6.926;2022-10-16T11:34:02;100207.06;;;18.06;100.00
46836;BME280;32573;51.290;6.926;2022-10-16T11:36:35;100207.97;;;18.00;100.00
46836;BME280;32573;51.290;6.926;2022-10-16T11:39:15;100203.53;;;18.04;100.00
46836;BME280;32573;51.290;6.926;2022-10-16T11:41:49;100207.97;;;18.08;100.00
46836;BME280;32573;51.290;6.926;2022-10-16T11:44:48;100206.19;;;18.15;100.00
46836;BME280;32573;51.290;6.926;2022-10-16T11:47:34;100207.03;;;18.24;100.00
46836;BME280;32573;51.290;6.926;2022-10-16T11:50:26;100217.59;;;18.37;100.00
46836;BME280;32573;51.290;6.926;2022-10-16T11:53:00;100218.44;;;18.46;100.00
46836;BME280;32573;51.290;6.926;2022-10-16T11:55:34;100214.00;;;18.53;100.00
46836;BME280;32573;51.290;6.926;2022-10-16T11:58:17;100214.00;;;18.62;100.00
46836;BME280;32573;51.290;6.926;2022-10-16T12:00:56;100215.72;;;18.66;100.00
46836;BME280;32573;51.290;6.926;2022-10-16T12:03:29;100218.38;;;18.68;100.00
46836;BME280;32573;51.290;6.926;2022-10-16T12:06:10;100217.50;;;18.61;100.00
46836;BME280;32573;51.290;6.926;2022-10-16T12:08:42;100227.25;;;18.61;100.00
46836;BME280;32573;51.290;6.926;2022-10-16T12:11:23;100229.88;;;18.64;100.00
46836;BME280;32573;51.290;6.926;2022-10-16T12:14:16;100222.75;;;18.73;100.00
46836;BME280;32573;51.290;6.926;2022-10-16T12:16:55;100217.47;;;18.78;100.00
46836;BME280;32573;51.290;6.926;2022-10-16T12:19:25;100230.72;;;18.83;100.00
46836;BME280;32573;51.290;6.926;2022-10-16T12:21:56;100226.28;;;18.85;100.00
46836;BME280;32573;51.290;6.926;2022-10-16T12:24:33;100225.34;;;18.93;100.00
46836;BME280;32573;51.290;6.926;2022-10-16T12:27:03;100219.13;;;19.02;100.00
46836;BME280;32573;51.290;6.926;2022-10-16T12:29:35;100224.38;;;19.13;100.00
46836;BME280;32573;51.290;6.926;2022-10-16T12:32:05;100213.72;;;19.17;100.00
46836;BME280;32573;51.290;6.926;2022-10-16T12:35:18;100218.94;;;19.30;100.00
46836;BME280;32573;51.290;6.926;2022-10-16T12:37:48;100222.44;;;19.38;100.00
46836;BME280;32573;51.290;6.926;2022-10-16T12:40:27;100217.16;;;19.35;100.00
46836;BME280;32573;51.290;6.926;2022-10-16T12:42:57;100214.53;;;19.27;100.00
46836;BME280;32573;51.290;6.926;2022-10-16T12:45:28;100213.66;;;19.24;100.00
46836;BME280;32573;51.290;6.926;2022-10-16T12:47:59;100216.34;;;19.21;100.00
46836;BME280;32573;51.290;6.926;2022-10-16T12:50:32;100210.13;;;19.22;100.00
46836;BME280;32573;51.290;6.926;2022-10-16T12:53:03;100219.81;;;19.29;100.00
46836;BME280;32573;51.290;6.926;2022-10-16T12:55:40;100218.94;;;19.30;100.00
46836;BME280;32573;51.290;6.926;2022-10-16T12:58:37;100220.81;;;19.15;100.00
46836;BME280;32573;51.290;6.926;2022-10-16T13:01:19;100219.91;;;19.18;100.00
46836;BME280;32573;51.290;6.926;2022-10-16T13:04:09;100232.22;;;19.28;100.00
46836;BME280;32573;51.290;6.926;2022-10-16T13:06:46;100230.38;;;19.43;100.00
46836;BME280;32573;51.290;6.926;2022-10-16T13:09:37;100223.19;;;19.57;100.00
46836;BME280;32573;51.290;6.926;2022-10-16T13:12:34;100218.59;;;19.74;100.00
46836;BME280;32573;51.290;6.926;2022-10-16T13:15:19;100218.50;;;19.87;100.00
46836;BME280;32573;51.290;6.926;2022-10-16T13:17:58;100209.63;;;19.89;100.00
46836;BME280;32573;51.290;6.926;2022-10-16T13:20:33;100220.25;;;19.89;100.00